Time;durP1;ratioP1;P1;durP2;ratioP2;P2;SDS_P1;SDS_P2;PMS_P1;PMS_P2;Temp;Humidity;BMP_temperature;BMP_pressure;BME280_temperature;BME280_humidity;BME280_pressure;Samples;Min_cycle;Max_cycle;Signal;HPM_P1;HPM_P2
2023/04/04 00:01:59;;;;;;;7.70;3.70;;;;;;;0.04;58.49;99189.81;5068484;28;20114;-73
2023/04/04 00:04:26;;;;;;;10.18;3.88;;;;;;;-0.02;58.44;99189.59;5069896;28;20021;-72
2023/04/04 00:06:52;;;;;;;6.70;3.53;;;;;;;-0.02;58.27;99191.47;5069705;28;20025;-73
2023/04/04 00:09:18;;;;;;;6.80;3.58;;;;;;;-0.10;58.71;99184.41;5069833;28;20037;-73
2023/04/04 00:11:44;;;;;;;6.60;3.28;;;;;;;-0.15;59.14;99184.19;5069589;28;20024;-72
2023/04/04 00:14:10;;;;;;;6.95;3.60;;;;;;;-0.21;59.07;99176.97;5069739;28;20485;-73
2023/04/04 00:16:35;;;;;;;6.22;3.17;;;;;;;-0.25;58.96;99186.50;5069799;28;20021;-73
2023/04/04 00:19:01;;;;;;;6.82;3.83;;;;;;;-0.31;58.65;99185.44;5053710;28;20511;-73
2023/04/04 00:21:26;;;;;;;7.78;4.15;;;;;;;-0.31;59.09;99180.91;5049990;28;20033;-73
2023/04/04 00:23:53;;;;;;;9.02;3.92;;;;;;;-0.34;58.75;99192.09;5049846;28;20036;-73
2023/04/04 00:26:20;;;;;;;7.65;4.10;;;;;;;-0.34;58.45;99186.72;5049780;28;20087;-73
2023/04/04 00:28:46;;;;;;;7.80;3.92;;;;;;;-0.35;59.05;99178.81;5053875;28;20029;-73
2023/04/04 00:31:11;;;;;;;8.32;4.00;;;;;;;-0.35;59.26;99182.34;5053516;28;20033;-73
2023/04/04 00:33:36;;;;;;;6.93;3.35;;;;;;;-0.38;59.34;99182.78;5053568;28;20025;-73
2023/04/04 00:36:02;;;;;;;8.43;4.25;;;;;;;-0.40;59.13;99182.16;5054294;28;20067;-72
2023/04/04 00:38:28;;;;;;;9.23;4.15;;;;;;;-0.42;59.26;99178.00;5053522;28;20024;-72
2023/04/04 00:40:55;;;;;;;6.88;3.67;;;;;;;-0.40;59.41;99181.28;5053547;28;20531;-72
2023/04/04 00:43:20;;;;;;;9.38;4.18;;;;;;;-0.45;59.41;99179.22;5072846;28;20519;-73
2023/04/04 00:45:46;;;;;;;9.10;3.67;;;;;;;-0.50;59.22;99179.88;5075154;28;20054;-73
2023/04/04 00:48:12;;;;;;;7.10;3.60;;;;;;;-0.53;59.34;99177.59;5093863;28;20059;-73
2023/04/04 00:50:37;;;;;;;7.55;3.65;;;;;;;-0.54;59.54;99173.22;5092888;28;20059;-73
2023/04/04 00:53:03;;;;;;;9.55;4.15;;;;;;;-0.57;59.71;99180.88;5093313;28;20379;-73
2023/04/04 00:55:28;;;;;;;6.07;3.58;;;;;;;-0.57;59.31;99178.19;5074724;28;20030;-73
2023/04/04 00:57:54;;;;;;;6.85;3.47;;;;;;;-0.56;60.08;99178.00;5092867;28;20369;-73
2023/04/04 01:00:19;;;;;;;6.40;3.45;;;;;;;-0.57;60.22;99179.03;5092998;28;20491;-72
2023/04/04 01:02:45;;;;;;;5.80;3.20;;;;;;;-0.61;59.75;99181.28;5093527;28;20083;-72
2023/04/04 01:05:11;;;;;;;5.82;3.22;;;;;;;-0.62;59.62;99176.97;5092763;28;20028;-73
2023/04/04 01:07:39;;;;;;;6.97;3.10;;;;;;;-0.64;59.78;99180.88;5074665;28;20442;-73
2023/04/04 01:10:05;;;;;;;5.95;3.60;;;;;;;-0.64;60.07;99186.25;5092903;28;20123;-73
2023/04/04 01:12:30;;;;;;;6.25;3.78;;;;;;;-0.69;60.30;99173.41;5092821;28;20031;-73
2023/04/04 01:14:56;;;;;;;7.45;3.80;;;;;;;-0.71;60.72;99182.72;5092452;28;20024;-73
2023/04/04 01:17:23;;;;;;;10.23;4.07;;;;;;;-0.74;60.10;99181.28;5092695;28;20024;-73
2023/04/04 01:20:14;;;;;;;7.32;3.78;;;;;;;-0.76;60.58;99184.16;5089039;28;20119;-73
2023/04/04 01:22:42;;;;;;;5.55;3.55;;;;;;;-0.77;59.92;99179.81;5092608;28;20098;-73
2023/04/04 01:25:08;;;;;;;7.10;3.58;;;;;;;-0.75;60.14;99185.00;5091971;28;20480;-73
2023/04/04 01:27:34;;;;;;;6.97;3.85;;;;;;;-0.77;59.98;99176.31;5092902;28;20032;-73
2023/04/04 01:29:59;;;;;;;9.38;4.72;;;;;;;-0.76;60.34;99189.56;5092509;28;20032;-73
2023/04/04 01:32:54;;;;;;;8.38;4.45;;;;;;;-0.76;59.47;99186.03;5092576;28;20036;-73
2023/04/04 01:35:37;;;;;;;7.72;4.55;;;;;;;-0.75;59.93;99190.41;5089287;28;20048;-73
2023/04/04 01:38:15;;;;;;;7.50;4.05;;;;;;;-0.75;59.97;99185.81;5089407;28;20028;-73
2023/04/04 01:40:47;;;;;;;6.57;3.88;;;;;;;-0.73;59.88;99196.41;5091888;28;20020;-73
2023/04/04 01:43:12;;;;;;;7.05;3.78;;;;;;;-0.72;59.70;99187.28;5092695;28;20507;-72
2023/04/04 01:45:38;;;;;;;8.60;4.15;;;;;;;-0.70;59.86;99198.69;5092374;28;20028;-73
2023/04/04 01:48:07;;;;;;;8.50;3.97;;;;;;;-0.73;59.86;99190.19;5092616;28;20031;-73
2023/04/04 01:50:32;;;;;;;5.68;3.55;;;;;;;-0.75;59.69;99190.41;5092791;28;20039;-73
2023/04/04 01:52:58;;;;;;;5.07;3.38;;;;;;;-0.73;59.77;99192.88;5088625;28;20059;-73
2023/04/04 01:55:23;;;;;;;8.52;3.83;;;;;;;-0.78;59.83;99197.00;5092361;28;20019;-73
2023/04/04 01:57:48;;;;;;;5.65;3.30;;;;;;;-0.79;60.17;99199.91;5092377;28;20078;-72
2023/04/04 02:00:14;;;;;;;7.00;3.60;;;;;;;-0.82;60.18;99198.47;5092357;28;20028;-73
2023/04/04 02:02:40;;;;;;;7.43;4.25;;;;;;;-0.88;59.86;99201.97;5092159;28;20023;-72
2023/04/04 02:05:05;;;;;;;7.30;4.10;;;;;;;-0.90;60.42;99198.66;5091431;28;20376;-72
2023/04/04 02:07:31;;;;;;;8.00;3.83;;;;;;;-0.90;60.40;99198.66;5092210;28;20392;-72
2023/04/04 02:09:56;;;;;;;6.45;3.50;;;;;;;-0.91;59.94;99195.13;5091673;28;20725;-73
2023/04/04 02:12:22;;;;;;;6.00;3.28;;;;;;;-0.93;60.08;99190.97;5091749;28;20093;-73
2023/04/04 02:14:48;;;;;;;8.48;4.05;;;;;;;-0.94;60.20;99194.69;5091492;28;20032;-73
2023/04/04 02:17:13;;;;;;;7.38;3.35;;;;;;;-1.00;59.90;99199.00;5091934;28;20055;-73
2023/04/04 02:19:39;;;;;;;7.68;3.95;;;;;;;-1.03;60.21;99195.91;5091919;28;20527;-73
2023/04/04 02:22:05;;;;;;;5.47;3.45;;;;;;;-1.06;60.39;99192.59;5073175;28;20032;-73
2023/04/04 02:24:30;;;;;;;8.30;4.35;;;;;;;-1.08;60.51;99196.53;5091684;28;20055;-73
2023/04/04 02:26:56;;;;;;;8.10;4.38;;;;;;;-1.11;60.17;99195.06;5092078;28;20058;-73
2023/04/04 02:29:22;;;;;;;8.50;4.57;;;;;;;-1.11;60.73;99194.25;5091861;28;20433;-73
2023/04/04 02:31:47;;;;;;;10.55;7.43;;;;;;;-1.15;60.93;99201.88;5091504;28;20059;-73
2023/04/04 02:34:13;;;;;;;18.90;12.50;;;;;;;-1.22;60.47;99193.78;5091962;28;20027;-73
2023/04/04 02:36:38;;;;;;;14.48;8.93;;;;;;;-1.23;61.09;99194.81;5091303;28;20434;-73
2023/04/04 02:39:04;;;;;;;49.22;28.15;;;;;;;-1.25;60.45;99193.38;5091588;28;20495;-73
2023/04/04 02:41:30;;;;;;;54.78;32.50;;;;;;;-1.24;60.41;99190.47;5073533;28;20039;-73
2023/04/04 02:43:55;;;;;;;30.20;13.63;;;;;;;-1.24;60.85;99195.03;5091526;28;20044;-73
2023/04/04 02:46:20;;;;;;;21.70;10.35;;;;;;;-1.28;60.54;99197.25;5091651;28;20422;-73
2023/04/04 02:48:46;;;;;;;39.92;12.23;;;;;;;-1.28;60.73;99199.97;5073199;28;20028;-73
2023/04/04 02:51:11;;;;;;;50.22;13.05;;;;;;;-1.28;60.37;99191.06;5090262;28;20046;-73
2023/04/04 02:53:37;;;;;;;32.70;11.70;;;;;;;-1.30;60.45;99193.13;5088768;28;20377;-73
2023/04/04 02:56:02;;;;;;;20.88;10.65;;;;;;;-1.29;60.58;99203.69;5091200;28;20080;-73
2023/04/04 02:58:30;;;;;;;30.38;18.27;;;;;;;-1.32;60.28;99195.19;5073222;28;20028;-73
2023/04/04 03:00:56;;;;;;;31.90;20.08;;;;;;;-1.30;60.27;99210.09;5091037;28;20488;-73
2023/04/04 03:03:21;;;;;;;41.33;16.98;;;;;;;-1.30;60.21;99196.63;5091725;28;20142;-73
2023/04/04 03:05:48;;;;;;;60.33;18.42;;;;;;;-1.30;60.34;99198.50;5091149;28;20036;-73
2023/04/04 03:08:16;;;;;;;51.35;15.02;;;;;;;-1.31;60.33;99207.63;5091144;28;20040;-73
2023/04/04 03:10:45;;;;;;;18.77;6.72;;;;;;;-1.33;60.66;99202.41;5091145;28;20032;-74
2023/04/04 03:13:11;;;;;;;13.88;5.63;;;;;;;-1.35;60.32;99199.09;5091465;28;20385;-74
2023/04/04 03:15:39;;;;;;;12.27;5.70;;;;;;;-1.36;60.91;99211.72;5091305;28;20039;-74
2023/04/04 03:18:04;;;;;;;9.80;5.10;;;;;;;-1.37;60.75;99199.31;5091398;28;20111;-73
2023/04/04 03:20:30;;;;;;;13.48;5.30;;;;;;;-1.36;60.52;99205.50;5091080;28;20102;-74
2023/04/04 03:22:56;;;;;;;9.50;4.22;;;;;;;-1.38;61.00;99199.50;5090649;28;20582;-74
2023/04/04 03:25:22;;;;;;;9.55;4.65;;;;;;;-1.40;61.03;99205.09;5090587;28;20363;-74
2023/04/04 03:27:47;;;;;;;9.15;4.13;;;;;;;-1.41;61.34;99202.56;5090949;28;20104;-74
2023/04/04 03:30:12;;;;;;;10.48;5.05;;;;;;;-1.44;61.44;99203.00;5072149;28;20089;-73
2023/04/04 03:32:38;;;;;;;27.60;10.38;;;;;;;-1.52;61.73;99195.91;5090627;28;20431;-73
2023/04/04 03:35:05;;;;;;;20.88;7.93;;;;;;;-1.58;61.80;99202.09;5090421;28;20032;-74
2023/04/04 03:37:31;;;;;;;12.70;5.35;;;;;;;-1.64;61.85;99206.41;5090571;28;20036;-74
2023/04/04 03:39:56;;;;;;;9.93;4.93;;;;;;;-1.69;61.93;99198.94;5090516;28;20039;-74
2023/04/04 03:42:22;;;;;;;8.55;4.97;;;;;;;-1.73;61.87;99202.22;5090090;28;20103;-74
2023/04/04 03:44:47;;;;;;;10.15;5.00;;;;;;;-1.74;61.45;99196.00;5090160;28;20486;-73
2023/04/04 03:47:13;;;;;;;8.35;4.53;;;;;;;-1.72;61.64;99201.19;5090596;28;20028;-73
2023/04/04 03:49:39;;;;;;;9.82;4.60;;;;;;;-1.75;61.80;99199.72;5090366;28;20111;-74
2023/04/04 03:52:05;;;;;;;10.63;4.70;;;;;;;-1.75;61.90;99202.41;5090009;28;20103;-73
2023/04/04 03:54:31;;;;;;;10.82;6.20;;;;;;;-1.78;61.86;99192.06;5090144;28;20028;-73
2023/04/04 03:56:57;;;;;;;8.18;4.63;;;;;;;-1.79;61.67;99195.78;5089803;28;20685;-74
2023/04/04 03:59:22;;;;;;;10.82;4.68;;;;;;;-1.84;61.75;99204.44;5090082;28;20120;-73
2023/04/04 04:01:48;;;;;;;11.35;5.38;;;;;;;-1.86;62.45;99200.28;5089689;28;20024;-74
2023/04/04 04:04:13;;;;;;;9.82;5.30;;;;;;;-1.91;61.76;99206.25;5071566;28;20067;-74
2023/04/04 04:06:39;;;;;;;10.95;5.45;;;;;;;-1.90;61.88;99199.00;5090396;28;20020;-73
2023/04/04 04:09:04;;;;;;;10.20;5.97;;;;;;;-1.91;61.97;99206.25;5090012;28;20369;-74
2023/04/04 04:11:29;;;;;;;13.02;5.63;;;;;;;-1.94;62.11;99198.56;5071911;28;20035;-74
2023/04/04 04:13:55;;;;;;;11.65;6.03;;;;;;;-1.92;61.93;99198.38;5090278;28;20436;-74
2023/04/04 04:16:21;;;;;;;9.85;5.78;;;;;;;-1.91;62.58;99191.97;5071975;28;20105;-74
2023/04/04 04:18:47;;;;;;;9.00;5.68;;;;;;;-1.92;62.20;99201.06;5089962;28;20028;-74
2023/04/04 04:21:12;;;;;;;9.27;5.72;;;;;;;-1.90;62.42;99197.16;5089176;28;20012;-74
2023/04/04 04:23:37;;;;;;;10.60;5.65;;;;;;;-1.88;62.11;99197.78;5090056;28;20028;-73
2023/04/04 04:26:04;;;;;;;13.15;7.85;;;;;;;-1.87;62.06;99196.75;5089399;28;20763;-74
2023/04/04 04:28:29;;;;;;;10.77;6.40;;;;;;;-1.87;62.13;99183.31;5089756;28;20035;-73
2023/04/04 04:30:55;;;;;;;10.55;5.25;;;;;;;-1.87;62.13;99183.31;5089078;28;20044;-74
2023/04/04 04:33:28;;;;;;;8.68;4.93;;;;;;;-1.89;62.10;99187.22;5089690;28;20104;-74
2023/04/04 04:35:58;;;;;;;9.88;4.70;;;;;;;-1.91;61.95;99198.19;5071431;28;20468;-74
2023/04/04 04:38:24;;;;;;;;;;;;;;;-1.89;62.26;99195.28;5072203;28;20047;-74
2023/04/04 04:40:49;;;;;;;16.48;7.82;;;;;;;-1.85;62.17;99192.03;5071443;28;20370;-74
2023/04/04 04:43:15;;;;;;;18.35;9.40;;;;;;;-1.80;62.49;99196.78;5089645;28;20564;-74
2023/04/04 04:45:41;;;;;;;14.30;5.53;;;;;;;-1.77;62.29;99188.34;5071127;28;20028;-74
2023/04/04 04:48:06;;;;;;;9.90;5.00;;;;;;;-1.78;62.67;99183.13;5089722;28;20103;-74
2023/04/04 04:50:32;;;;;;;11.20;4.47;;;;;;;-1.77;62.37;99179.41;5071507;28;20036;-74
2023/04/04 04:52:58;;;;;;;11.88;5.18;;;;;;;-1.77;63.31;99184.81;5089326;28;20063;-75
2023/04/04 04:55:24;;;;;;;10.25;5.63;;;;;;;-1.73;62.67;99189.59;5089060;28;20472;-74
2023/04/04 04:57:50;;;;;;;9.90;5.70;;;;;;;-1.71;63.21;99192.09;5089698;28;20074;-74
2023/04/04 05:00:16;;;;;;;8.27;4.85;;;;;;;-1.69;63.44;99190.88;5089524;28;20097;-74
2023/04/04 05:02:42;;;;;;;16.88;6.35;;;;;;;-1.68;63.15;99197.06;5089214;28;20163;-74
2023/04/04 05:05:08;;;;;;;17.55;6.95;;;;;;;-1.66;63.59;99192.31;5089317;28;20075;-74
2023/04/04 05:07:33;;;;;;;11.95;5.60;;;;;;;-1.64;63.62;99192.97;5089851;28;20046;-74
2023/04/04 05:09:58;;;;;;;9.75;4.68;;;;;;;-1.66;63.65;99189.63;5089505;28;20100;-73
2023/04/04 05:12:24;;;;;;;12.80;6.40;;;;;;;-1.69;63.81;99204.31;5089540;28;20021;-74
2023/04/04 05:14:49;;;;;;;17.95;7.13;;;;;;;-1.65;63.72;99191.28;5090377;28;20498;-74
2023/04/04 05:17:14;;;;;;;15.80;7.30;;;;;;;-1.66;63.54;99190.47;5093077;28;20023;-74
2023/04/04 05:19:40;;;;;;;14.98;6.88;;;;;;;-1.60;63.83;99191.53;5093180;28;20024;-74
2023/04/04 05:22:06;;;;;;;19.15;7.82;;;;;;;-1.57;63.81;99199.22;5093119;28;20024;-73
2023/04/04 05:24:32;;;;;;;16.65;7.35;;;;;;;-1.50;63.70;99202.78;5093148;28;20027;-73
2023/04/04 05:26:58;;;;;;;14.60;6.65;;;;;;;-1.46;63.84;99202.38;5074345;28;20020;-74
2023/04/04 05:29:24;;;;;;;10.85;5.88;;;;;;;-1.48;63.49;99197.19;5092817;28;20502;-74
2023/04/04 05:31:49;;;;;;;13.55;6.28;;;;;;;-1.44;63.76;99197.63;5092087;28;20095;-73
2023/04/04 05:34:15;;;;;;;12.85;5.35;;;;;;;-1.38;63.52;99196.81;5092268;28;20016;-73
2023/04/04 05:36:40;;;;;;;12.18;6.10;;;;;;;-1.29;63.29;99203.69;5091575;28;20465;-74
2023/04/04 05:39:06;;;;;;;11.95;5.93;;;;;;;-1.20;63.35;99198.94;5092502;28;20020;-73
2023/04/04 05:41:32;;;;;;;8.35;4.30;;;;;;;-1.20;62.94;99207.88;5087191;28;20032;-74
2023/04/04 05:43:58;;;;;;;9.38;4.47;;;;;;;-1.11;62.81;99210.38;5077215;28;20148;-73
2023/04/04 05:46:24;;;;;;;5.90;3.75;;;;;;;-1.05;62.79;99206.91;5064923;28;20473;-74
2023/04/04 05:48:50;;;;;;;7.72;4.00;;;;;;;-0.97;62.38;99211.25;5072177;28;20572;-74
2023/04/04 05:51:16;;;;;;;10.93;4.70;;;;;;;-0.92;62.42;99211.50;5072292;28;20024;-73
2023/04/04 05:53:44;;;;;;;8.00;4.07;;;;;;;-0.85;62.11;99212.34;5059365;28;20440;-74
2023/04/04 05:56:10;;;;;;;9.63;4.07;;;;;;;-0.83;62.02;99212.97;5051906;28;20029;-74
2023/04/04 05:58:35;;;;;;;10.57;4.10;;;;;;;-0.83;61.50;99215.66;5052039;28;20017;-74
2023/04/04 06:01:02;;;;;;;5.55;3.35;;;;;;;-0.79;61.71;99213.38;5051729;28;20480;-73
2023/04/04 06:03:27;;;;;;;7.28;3.63;;;;;;;-0.78;61.38;99212.34;5052009;28;20029;-74
2023/04/04 06:05:53;;;;;;;7.13;3.53;;;;;;;-0.75;61.56;99207.38;5051750;28;20032;-74
2023/04/04 06:08:18;;;;;;;8.60;4.00;;;;;;;-0.73;61.26;99206.34;5052242;28;20086;-74
2023/04/04 06:10:44;;;;;;;6.07;3.33;;;;;;;-0.66;61.38;99212.56;5056169;28;20378;-73
2023/04/04 06:13:09;;;;;;;9.23;3.95;;;;;;;-0.60;60.74;99207.19;5058028;28;20039;-74
2023/04/04 06:15:35;;;;;;;8.60;3.97;;;;;;;-0.58;60.80;99208.84;5067649;28;21937;-73
2023/04/04 06:18:00;;;;;;;9.55;4.03;;;;;;;-0.64;61.04;99205.97;5053305;28;20025;-74
2023/04/04 06:20:26;;;;;;;9.05;3.90;;;;;;;-0.65;60.68;99215.09;5051760;28;20029;-74
2023/04/04 06:22:52;;;;;;;12.35;4.97;;;;;;;-0.69;60.45;99205.75;5069541;28;20036;-74
2023/04/04 06:25:17;;;;;;;7.00;4.18;;;;;;;-0.73;60.62;99209.88;5071258;28;20146;-74
2023/04/04 06:27:43;;;;;;;9.13;4.07;;;;;;;-0.71;60.26;99209.66;5071361;28;20495;-74
2023/04/04 06:30:09;;;;;;;8.30;3.53;;;;;;;-0.68;59.39;99199.31;5052456;28;20048;-74
2023/04/04 06:32:34;;;;;;;7.10;3.85;;;;;;;-0.71;60.00;99204.28;5051454;28;20413;-73
2023/04/04 06:35:00;;;;;;;5.80;2.90;;;;;;;-0.69;59.95;99203.06;5053556;28;20089;-74
2023/04/04 06:37:25;;;;;;;9.15;3.38;;;;;;;-0.69;58.34;99194.13;5050892;28;20429;-74
2023/04/04 06:39:51;;;;;;;7.85;3.42;;;;;;;-0.78;58.88;99197.00;5052257;28;20029;-74
2023/04/04 06:42:16;;;;;;;7.10;2.83;;;;;;;-0.79;58.78;99211.50;5053109;28;20125;-74
2023/04/04 06:44:41;;;;;;;6.75;2.85;;;;;;;-0.78;58.40;99199.69;5091782;28;20032;-74
2023/04/04 06:47:07;;;;;;;6.05;3.10;;;;;;;-0.80;58.37;99204.47;5091637;28;20081;-74
2023/04/04 06:49:32;;;;;;;4.80;2.55;;;;;;;-0.81;58.15;99202.78;5092007;28;20047;-74
2023/04/04 06:51:59;;;;;;;5.70;2.55;;;;;;;-0.88;57.63;99201.97;5091840;28;20495;-74
2023/04/04 06:54:25;;;;;;;6.05;3.25;;;;;;;-0.83;57.64;99209.44;5091930;28;20480;-74
2023/04/04 06:56:51;;;;;;;4.85;2.47;;;;;;;-0.80;58.35;99199.06;5088223;28;20042;-74
2023/04/04 06:59:17;;;;;;;6.78;2.85;;;;;;;-0.70;58.21;99197.84;5091608;28;20056;-74
2023/04/04 07:01:42;;;;;;;3.97;2.30;;;;;;;-0.64;57.24;99191.66;5073753;28;20416;-75
2023/04/04 07:04:07;;;;;;;5.38;3.05;;;;;;;-0.62;57.11;99197.66;5091398;28;20027;-71
2023/04/04 07:06:33;;;;;;;5.43;2.53;;;;;;;-0.60;57.59;99191.03;5087506;28;20361;-71
2023/04/04 07:08:58;;;;;;;4.78;2.47;;;;;;;-0.56;57.69;99204.09;5092248;28;20032;-71
2023/04/04 07:11:24;;;;;;;4.10;2.47;;;;;;;-0.51;57.74;99205.16;5089339;28;20024;-72
2023/04/04 07:13:49;;;;;;;7.80;2.78;;;;;;;-0.43;57.43;99203.31;5091468;28;20481;-72
2023/04/04 07:16:15;;;;;;;4.90;2.70;;;;;;;-0.37;57.31;99208.69;5090993;28;20020;-71
2023/04/04 07:18:40;;;;;;;4.97;2.70;;;;;;;-0.28;57.09;99203.91;5091701;28;20062;-71
2023/04/04 07:21:05;;;;;;;7.00;2.83;;;;;;;-0.21;55.85;99203.94;5091374;28;20020;-71
2023/04/04 07:23:31;;;;;;;5.38;3.20;;;;;;;-0.20;56.80;99205.56;5091253;28;20024;-70
2023/04/04 07:25:56;;;;;;;6.07;2.55;;;;;;;-0.16;56.63;99199.56;5088970;28;20069;-71
2023/04/04 07:28:22;;;;;;;4.35;2.17;;;;;;;-0.05;56.68;99194.59;5089921;28;20023;-71
2023/04/04 07:30:47;;;;;;;4.70;2.15;;;;;;;0.04;56.88;99195.19;5083593;28;20031;-70
2023/04/04 07:33:13;;;;;;;6.50;2.60;;;;;;;0.16;55.88;99206.19;5084107;28;20059;-71
2023/04/04 07:35:38;;;;;;;5.55;2.65;;;;;;;0.26;55.86;99207.41;5087063;28;20024;-69
2023/04/04 07:38:03;;;;;;;4.10;2.47;;;;;;;0.36;55.29;99208.84;5083346;28;20021;-71
2023/04/04 07:40:29;;;;;;;6.78;3.03;;;;;;;0.40;53.73;99210.94;5085965;28;20027;-70
2023/04/04 07:42:55;;;;;;;5.43;3.10;;;;;;;0.28;54.28;99205.31;5087776;28;20123;-71
2023/04/04 07:45:23;;;;;;;6.38;3.17;;;;;;;0.24;55.01;99204.06;5086385;28;20388;-68
2023/04/04 07:48:05;;;;;;;9.48;4.10;;;;;;;0.32;53.59;99203.03;5085185;28;20104;-70
2023/04/04 07:50:31;;;;;;;7.22;3.42;;;;;;;0.30;54.52;99205.13;5088608;28;20031;-70
2023/04/04 07:52:57;;;;;;;6.60;3.10;;;;;;;0.28;54.60;99213.41;5089030;28;20020;-72
2023/04/04 07:55:24;;;;;;;5.55;3.33;;;;;;;0.32;54.10;99215.69;5088956;28;20043;-71
2023/04/04 07:57:50;;;;;;;6.88;3.38;;;;;;;0.39;54.07;99211.97;5089490;28;20028;-70
2023/04/04 08:00:20;;;;;;;7.70;3.42;;;;;;;0.50;54.40;99204.22;5089569;28;20028;-70
2023/04/04 08:02:50;;;;;;;9.50;4.25;;;;;;;0.63;55.08;99206.91;5090020;28;20488;-71
2023/04/04 08:05:15;;;;;;;10.20;4.13;;;;;;;0.74;53.40;99192.75;5085324;28;20020;-70
2023/04/04 08:07:41;;;;;;;6.35;3.30;;;;;;;0.76;54.10;99203.31;5090199;28;20063;-69
2023/04/04 08:10:07;;;;;;;8.30;3.90;;;;;;;0.85;53.74;99196.66;5089233;28;20548;-72
2023/04/04 08:12:33;;;;;;;7.95;3.80;;;;;;;0.95;52.80;99198.06;5089216;28;20031;-70
2023/04/04 08:14:58;;;;;;;9.63;3.70;;;;;;;1.05;51.09;99198.41;5089416;28;20032;-72
2023/04/04 08:17:24;;;;;;;5.47;2.70;;;;;;;1.01;53.11;99195.31;5088353;28;20034;-71
2023/04/04 08:19:50;;;;;;;11.18;4.70;;;;;;;1.00;50.48;99198.25;5088215;28;20032;-72
2023/04/04 08:22:15;;;;;;;8.50;3.67;;;;;;;0.88;51.80;99198.91;5089315;28;20102;-72
2023/04/04 08:24:41;;;;;;;6.20;2.60;;;;;;;0.93;52.41;99194.75;5088848;28;20028;-72
2023/04/04 08:27:06;;;;;;;6.18;2.72;;;;;;;0.98;51.77;99190.34;5086270;28;20464;-72
2023/04/04 08:29:33;;;;;;;8.88;3.90;;;;;;;0.95;51.46;99190.78;5081242;28;20047;-71
2023/04/04 08:31:59;;;;;;;5.85;2.53;;;;;;;0.92;51.95;99188.50;5081600;28;20485;-71
2023/04/04 08:34:24;;;;;;;4.90;3.00;;;;;;;0.98;52.17;99189.53;5089791;28;20046;-71
2023/04/04 08:36:51;;;;;;;6.93;3.15;;;;;;;1.03;52.22;99186.97;5085970;28;20028;-70
2023/04/04 08:39:17;;;;;;;6.35;3.53;;;;;;;1.12;51.67;99193.00;5087589;28;20028;-69
2023/04/04 08:41:44;;;;;;;8.68;3.90;;;;;;;1.23;52.51;99194.97;5084224;28;20032;-69
2023/04/04 08:44:21;;;;;;;5.93;2.30;;;;;;;1.34;51.93;99188.91;5079725;28;20389;-69
2023/04/04 08:46:48;;;;;;;3.13;1.80;;;;;;;1.48;51.10;99186.94;5089359;28;20511;-69
2023/04/04 08:49:15;;;;;;;5.15;2.40;;;;;;;1.55;51.92;99181.50;5090335;28;20039;-69
2023/04/04 08:51:41;;;;;;;9.65;3.70;;;;;;;1.70;51.47;99172.22;5091687;28;20032;-69
2023/04/04 08:54:08;;;;;;;5.30;3.22;;;;;;;1.81;49.94;99173.38;5093314;28;20024;-69
2023/04/04 08:56:34;;;;;;;7.57;3.25;;;;;;;1.90;50.47;99177.44;5089577;28;20107;-69
2023/04/04 08:59:00;;;;;;;4.68;2.35;;;;;;;2.08;50.90;99174.78;5093481;28;20031;-69
2023/04/04 09:01:28;;;;;;;5.57;2.45;;;;;;;2.21;50.64;99173.03;5071444;28;20035;-69
2023/04/04 09:03:56;;;;;;;3.42;1.83;;;;;;;2.33;51.17;99175.81;5092379;28;20064;-70
2023/04/04 09:06:22;;;;;;;4.28;2.40;;;;;;;2.37;48.63;99167.00;5091329;28;20040;-70
2023/04/04 09:08:50;;;;;;;4.55;2.50;;;;;;;2.34;49.76;99164.75;5091104;28;20514;-69
2023/04/04 09:11:18;;;;;;;8.07;3.50;;;;;;;2.34;47.53;99164.75;5091819;28;20063;-69
2023/04/04 09:13:44;;;;;;;4.15;2.13;;;;;;;2.33;47.78;99165.78;5089154;28;20496;-69
2023/04/04 09:16:09;;;;;;;2.78;2.10;;;;;;;2.35;48.19;99163.69;5089235;28;20111;-68
2023/04/04 09:18:35;;;;;;;3.30;2.22;;;;;;;2.37;47.71;99167.00;5092628;28;20020;-68
2023/04/04 09:21:08;;;;;;;8.70;3.33;;;;;;;2.43;48.79;99164.44;5090635;28;20468;-68
2023/04/04 09:23:33;;;;;;;4.57;2.58;;;;;;;2.48;47.76;99164.59;5088669;28;20024;-69
2023/04/04 09:25:58;;;;;;;5.20;3.20;;;;;;;2.48;47.15;99159.19;5088998;28;20558;-68
2023/04/04 09:28:24;;;;;;;5.75;3.08;;;;;;;2.35;46.56;99162.88;5090620;28;20024;-69
2023/04/04 09:30:51;;;;;;;4.65;2.40;;;;;;;2.23;48.59;99155.50;5092128;28;20118;-69
2023/04/04 09:33:18;;;;;;;5.38;2.88;;;;;;;2.25;48.60;99155.25;5092172;28;20361;-68
2023/04/04 09:35:57;;;;;;;3.88;2.05;;;;;;;2.29;47.99;99152.94;5088862;28;20171;-69
2023/04/04 09:38:24;;;;;;;3.58;2.38;;;;;;;2.32;47.28;99161.44;5090164;28;20032;-69
2023/04/04 09:40:51;;;;;;;5.00;2.70;;;;;;;2.40;48.42;99163.03;5092106;28;20400;-68
2023/04/04 09:43:18;;;;;;;3.88;2.00;;;;;;;2.48;47.81;99162.72;5091332;28;20040;-69
2023/04/04 09:45:44;;;;;;;4.43;2.40;;;;;;;2.59;47.63;99155.72;5091704;28;20032;-69
2023/04/04 09:48:10;;;;;;;4.97;2.50;;;;;;;2.67;47.40;99160.00;5092482;28;20377;-69
2023/04/04 09:50:44;;;;;;;4.68;2.75;;;;;;;2.73;47.90;99158.25;5092067;28;20069;-68
2023/04/04 09:53:15;;;;;;;5.85;2.90;;;;;;;2.75;46.75;99161.56;5092687;28;20405;-69
2023/04/04 09:55:41;;;;;;;7.07;3.25;;;;;;;2.71;47.62;99158.50;5089813;28;20081;-68
2023/04/04 09:58:15;;;;;;;6.80;2.90;;;;;;;2.87;48.15;99154.34;5090213;28;20028;-69
2023/04/04 10:00:46;;;;;;;7.15;3.55;;;;;;;2.96;47.40;99162.97;5090662;28;20028;-68
2023/04/04 10:03:16;;;;;;;6.55;2.88;;;;;;;2.97;47.92;99159.19;5089333;28;20028;-69
2023/04/04 10:05:43;;;;;;;6.22;2.92;;;;;;;3.05;47.36;99161.59;5090188;28;20085;-69
2023/04/04 10:08:17;;;;;;;3.75;2.40;;;;;;;2.97;46.90;99151.91;5088915;28;20020;-69
2023/04/04 10:11:03;;;;;;;4.95;2.88;;;;;;;3.02;48.26;99159.34;5087908;28;20031;-69
2023/04/04 10:13:34;;;;;;;8.95;3.95;;;;;;;3.08;47.62;99163.00;5090044;28;20044;-69
2023/04/04 10:16:02;;;;;;;4.25;2.35;;;;;;;3.11;46.71;99154.41;5090149;28;20060;-69
2023/04/04 10:18:29;;;;;;;5.95;2.80;;;;;;;3.06;46.08;99148.88;5090099;28;20055;-69
2023/04/04 10:20:57;;;;;;;7.18;2.88;;;;;;;3.05;47.22;99149.94;5091083;28;20028;-69
2023/04/04 10:23:25;;;;;;;5.72;2.60;;;;;;;3.23;47.64;99157.19;5091890;28;20116;-69
2023/04/04 10:25:54;;;;;;;3.05;2.40;;;;;;;3.36;46.69;99151.56;5089091;28;20082;-69
2023/04/04 10:28:20;;;;;;;5.40;2.70;;;;;;;3.40;47.13;99160.88;5086184;28;20031;-69
2023/04/04 10:31:04;;;;;;;3.80;2.15;;;;;;;3.25;46.08;99165.94;5088072;28;20036;-68
2023/04/04 10:34:00;;;;;;;5.82;2.50;;;;;;;3.13;45.96;99150.44;5089736;28;20047;-69
2023/04/04 10:36:34;;;;;;;4.68;2.33;;;;;;;3.17;45.88;99145.38;5057681;28;20040;-69
2023/04/04 10:39:22;;;;;;;4.85;2.92;;;;;;;3.29;46.81;99145.41;5088587;28;20031;-69
2023/04/04 10:41:50;;;;;;;5.75;2.85;;;;;;;3.31;47.05;99154.13;5089731;28;20106;-69
2023/04/04 10:44:32;;;;;;;3.40;2.17;;;;;;;3.29;45.68;99150.81;5089777;28;20047;-69
2023/04/04 10:47:14;;;;;;;3.72;2.20;;;;;;;3.23;45.88;99149.06;5089705;28;20031;-69
2023/04/04 10:49:50;;;;;;;5.75;2.50;;;;;;;3.25;46.28;99150.47;5090188;28;20452;-69
2023/04/04 10:52:17;;;;;;;6.78;3.38;;;;;;;3.37;46.70;99142.38;5090138;28;20028;-70
2023/04/04 10:54:44;;;;;;;5.88;2.85;;;;;;;3.49;46.15;99147.00;5068143;28;20685;-68
2023/04/04 10:57:11;;;;;;;9.93;5.60;;;;;;;3.52;46.40;99158.19;5090487;28;20111;-70
2023/04/04 11:00:05;;;;;;;6.68;3.58;;;;;;;3.55;46.91;99155.03;5089277;28;20476;-69
2023/04/04 11:02:57;;;;;;;7.97;3.15;;;;;;;3.56;45.25;99159.38;5088028;28;20024;-69
2023/04/04 11:05:49;;;;;;;6.78;4.05;;;;;;;3.54;46.08;99155.28;5088143;28;20132;-70
2023/04/04 11:08:18;;;;;;;4.75;3.20;;;;;;;3.60;45.64;99148.91;5087077;28;20465;-70
2023/04/04 11:10:46;;;;;;;4.90;3.00;;;;;;;3.75;45.69;99153.03;5088411;28;20024;-70
2023/04/04 11:13:15;;;;;;;5.30;2.63;;;;;;;3.80;45.24;99142.31;5088230;28;20384;-71
2023/04/04 11:16:00;;;;;;;10.93;5.57;;;;;;;3.89;45.25;99143.63;5087902;28;20032;-70
2023/04/04 11:18:37;;;;;;;8.50;3.85;;;;;;;3.94;43.12;99145.63;5087309;28;20093;-70
2023/04/04 11:21:06;;;;;;;5.65;2.47;;;;;;;3.76;43.89;99154.69;5089313;28;20500;-69
2023/04/04 11:23:57;;;;;;;5.80;2.65;;;;;;;3.50;44.19;99140.53;5083850;28;20036;-69
2023/04/04 11:26:26;;;;;;;6.72;2.80;;;;;;;3.44;44.71;99147.72;5044592;28;20128;-72
2023/04/04 11:28:55;;;;;;;6.43;3.00;;;;;;;3.49;44.41;99136.16;5088737;28;20098;-70
2023/04/04 11:31:22;;;;;;;7.07;2.80;;;;;;;3.46;44.45;99129.31;5069710;28;20107;-70
2023/04/04 11:34:04;;;;;;;5.60;2.42;;;;;;;3.43;45.50;99121.66;5071056;28;20031;-70
2023/04/04 11:36:36;;;;;;;3.55;2.17;;;;;;;3.51;44.21;99139.47;5069683;28;20031;-70